sensor_id;sensor_type;location;lat;lon;timestamp;P1;durP1;ratioP1;P2;durP2;ratioP2
20397;SDS011;10358;49.590;11.030;2023-07-28T00:01:05;7.80;;;4.80;;
20397;SDS011;10358;49.590;11.030;2023-07-28T00:03:30;10.23;;;5.43;;
20397;SDS011;10358;49.590;11.030;2023-07-28T00:05:56;6.82;;;4.45;;
20397;SDS011;10358;49.590;11.030;2023-07-28T00:08:21;5.70;;;4.07;;
20397;SDS011;10358;49.590;11.030;2023-07-28T00:10:47;6.35;;;4.72;;
20397;SDS011;10358;49.590;11.030;2023-07-28T00:13:12;8.48;;;4.50;;
20397;SDS011;10358;49.590;11.030;2023-07-28T00:15:38;6.05;;;4.10;;
20397;SDS011;10358;49.590;11.030;2023-07-28T00:18:03;5.78;;;4.30;;
20397;SDS011;10358;49.590;11.030;2023-07-28T00:20:29;5.95;;;4.50;;
20397;SDS011;10358;49.590;11.030;2023-07-28T00:22:54;5.70;;;3.92;;
20397;SDS011;10358;49.590;11.030;2023-07-28T00:25:20;6.25;;;4.47;;
20397;SDS011;10358;49.590;11.030;2023-07-28T00:27:47;8.00;;;4.50;;
20397;SDS011;10358;49.590;11.030;2023-07-28T00:30:12;7.68;;;4.70;;
20397;SDS011;10358;49.590;11.030;2023-07-28T00:32:38;5.80;;;4.22;;
20397;SDS011;10358;49.590;11.030;2023-07-28T00:35:04;6.18;;;4.70;;
20397;SDS011;10358;49.590;11.030;2023-07-28T00:37:30;6.03;;;4.70;;
20397;SDS011;10358;49.590;11.030;2023-07-28T00:39:55;8.05;;;4.57;;
20397;SDS011;10358;49.590;11.030;2023-07-28T00:42:21;6.68;;;4.30;;
20397;SDS011;10358;49.590;11.030;2023-07-28T00:44:46;7.13;;;4.50;;
20397;SDS011;10358;49.590;11.030;2023-07-28T00:47:12;6.80;;;4.30;;
20397;SDS011;10358;49.590;11.030;2023-07-28T00:49:39;7.78;;;4.50;;
20397;SDS011;10358;49.590;11.030;2023-07-28T00:52:06;5.88;;;4.07;;
20397;SDS011;10358;49.590;11.030;2023-07-28T00:54:32;6.70;;;4.55;;
20397;SDS011;10358;49.590;11.030;2023-07-28T00:56:59;8.52;;;4.80;;
20397;SDS011;10358;49.590;11.030;2023-07-28T00:59:25;7.82;;;4.25;;
20397;SDS011;10358;49.590;11.030;2023-07-28T01:01:51;5.95;;;4.43;;
20397;SDS011;10358;49.590;11.030;2023-07-28T01:04:17;6.03;;;4.30;;
20397;SDS011;10358;49.590;11.030;2023-07-28T01:06:57;10.85;;;4.32;;
20397;SDS011;10358;49.590;11.030;2023-07-28T01:09:56;6.95;;;4.60;;
20397;SDS011;10358;49.590;11.030;2023-07-28T01:12:30;7.07;;;4.72;;
20397;SDS011;10358;49.590;11.030;2023-07-28T01:14:56;7.07;;;4.97;;
20397;SDS011;10358;49.590;11.030;2023-07-28T01:17:21;8.55;;;4.47;;
20397;SDS011;10358;49.590;11.030;2023-07-28T01:19:49;7.80;;;4.35;;
20397;SDS011;10358;49.590;11.030;2023-07-28T01:27:40;7.00;;;4.88;;
20397;SDS011;10358;49.590;11.030;2023-07-28T01:30:07;7.35;;;4.97;;
20397;SDS011;10358;49.590;11.030;2023-07-28T01:32:35;9.88;;;5.10;;
20397;SDS011;10358;49.590;11.030;2023-07-28T01:35:01;6.85;;;4.65;;
20397;SDS011;10358;49.590;11.030;2023-07-28T01:37:28;5.82;;;4.53;;
20397;SDS011;10358;49.590;11.030;2023-07-28T01:39:54;6.50;;;4.55;;
20397;SDS011;10358;49.590;11.030;2023-07-28T01:42:19;6.13;;;4.20;;
20397;SDS011;10358;49.590;11.030;2023-07-28T01:44:45;7.10;;;4.60;;
20397;SDS011;10358;49.590;11.030;2023-07-28T01:47:11;7.38;;;4.30;;
20397;SDS011;10358;49.590;11.030;2023-07-28T01:49:36;7.35;;;4.93;;
20397;SDS011;10358;49.590;11.030;2023-07-28T01:52:02;8.20;;;5.10;;
20397;SDS011;10358;49.590;11.030;2023-07-28T01:54:28;6.18;;;4.70;;
20397;SDS011;10358;49.590;11.030;2023-07-28T01:56:53;7.43;;;4.60;;
20397;SDS011;10358;49.590;11.030;2023-07-28T01:59:19;6.03;;;4.10;;
20397;SDS011;10358;49.590;11.030;2023-07-28T02:01:45;7.15;;;4.70;;
20397;SDS011;10358;49.590;11.030;2023-07-28T02:04:11;7.65;;;4.82;;
20397;SDS011;10358;49.590;11.030;2023-07-28T02:06:37;10.45;;;5.13;;
20397;SDS011;10358;49.590;11.030;2023-07-28T02:09:03;8.50;;;4.40;;
20397;SDS011;10358;49.590;11.030;2023-07-28T02:11:28;6.72;;;4.65;;
20397;SDS011;10358;49.590;11.030;2023-07-28T02:13:54;10.23;;;5.13;;
20397;SDS011;10358;49.590;11.030;2023-07-28T02:16:19;9.75;;;4.72;;
20397;SDS011;10358;49.590;11.030;2023-07-28T02:18:45;10.25;;;5.05;;
20397;SDS011;10358;49.590;11.030;2023-07-28T02:21:11;9.48;;;4.65;;
20397;SDS011;10358;49.590;11.030;2023-07-28T02:23:36;7.20;;;4.53;;
20397;SDS011;10358;49.590;11.030;2023-07-28T02:26:02;6.30;;;4.50;;
20397;SDS011;10358;49.590;11.030;2023-07-28T02:28:27;7.50;;;5.07;;
20397;SDS011;10358;49.590;11.030;2023-07-28T02:30:53;7.30;;;4.53;;
20397;SDS011;10358;49.590;11.030;2023-07-28T02:33:18;8.40;;;4.65;;
20397;SDS011;10358;49.590;11.030;2023-07-28T02:35:44;5.63;;;4.50;;
20397;SDS011;10358;49.590;11.030;2023-07-28T02:38:10;6.65;;;4.40;;
20397;SDS011;10358;49.590;11.030;2023-07-28T02:40:35;8.13;;;4.80;;
20397;SDS011;10358;49.590;11.030;2023-07-28T02:43:01;7.47;;;3.92;;
20397;SDS011;10358;49.590;11.030;2023-07-28T02:45:26;5.45;;;3.90;;
20397;SDS011;10358;49.590;11.030;2023-07-28T02:47:52;6.07;;;3.35;;
20397;SDS011;10358;49.590;11.030;2023-07-28T02:50:17;6.10;;;3.33;;
20397;SDS011;10358;49.590;11.030;2023-07-28T02:52:43;7.68;;;3.17;;
20397;SDS011;10358;49.590;11.030;2023-07-28T02:55:08;4.78;;;2.92;;
20397;SDS011;10358;49.590;11.030;2023-07-28T02:57:34;4.47;;;2.92;;
20397;SDS011;10358;49.590;11.030;2023-07-28T02:59:59;4.57;;;2.97;;
20397;SDS011;10358;49.590;11.030;2023-07-28T03:02:25;4.45;;;2.80;;
20397;SDS011;10358;49.590;11.030;2023-07-28T03:04:51;5.10;;;2.40;;
20397;SDS011;10358;49.590;11.030;2023-07-28T03:07:16;4.78;;;2.47;;
20397;SDS011;10358;49.590;11.030;2023-07-28T03:09:42;3.35;;;2.70;;
20397;SDS011;10358;49.590;11.030;2023-07-28T03:12:08;4.85;;;3.00;;
20397;SDS011;10358;49.590;11.030;2023-07-28T03:14:33;3.65;;;3.00;;
20397;SDS011;10358;49.590;11.030;2023-07-28T03:16:59;4.85;;;3.25;;
20397;SDS011;10358;49.590;11.030;2023-07-28T03:19:24;4.70;;;2.90;;
20397;SDS011;10358;49.590;11.030;2023-07-28T03:21:50;3.85;;;3.15;;
20397;SDS011;10358;49.590;11.030;2023-07-28T03:24:15;4.78;;;3.30;;
20397;SDS011;10358;49.590;11.030;2023-07-28T03:26:41;6.82;;;4.05;;
20397;SDS011;10358;49.590;11.030;2023-07-28T03:29:07;6.20;;;4.60;;
20397;SDS011;10358;49.590;11.030;2023-07-28T03:31:32;6.72;;;4.50;;
20397;SDS011;10358;49.590;11.030;2023-07-28T03:34:00;5.70;;;4.28;;
20397;SDS011;10358;49.590;11.030;2023-07-28T03:36:27;7.53;;;4.50;;
20397;SDS011;10358;49.590;11.030;2023-07-28T03:38:53;5.95;;;4.45;;
20397;SDS011;10358;49.590;11.030;2023-07-28T03:41:18;6.10;;;4.55;;
20397;SDS011;10358;49.590;11.030;2023-07-28T03:43:44;5.63;;;4.28;;
20397;SDS011;10358;49.590;11.030;2023-07-28T03:46:10;6.13;;;4.32;;
20397;SDS011;10358;49.590;11.030;2023-07-28T03:48:36;7.00;;;4.82;;
20397;SDS011;10358;49.590;11.030;2023-07-28T03:51:02;7.25;;;4.88;;
20397;SDS011;10358;49.590;11.030;2023-07-28T03:53:27;7.20;;;5.03;;
20397;SDS011;10358;49.590;11.030;2023-07-28T03:55:53;7.43;;;4.60;;
20397;SDS011;10358;49.590;11.030;2023-07-28T03:58:22;7.85;;;4.07;;
20397;SDS011;10358;49.590;11.030;2023-07-28T04:00:52;6.28;;;4.72;;
20397;SDS011;10358;49.590;11.030;2023-07-28T04:03:18;7.35;;;4.50;;
20397;SDS011;10358;49.590;11.030;2023-07-28T04:05:44;8.02;;;4.55;;
20397;SDS011;10358;49.590;11.030;2023-07-28T04:08:09;8.05;;;4.50;;
20397;SDS011;10358;49.590;11.030;2023-07-28T04:10:35;5.10;;;3.88;;
20397;SDS011;10358;49.590;11.030;2023-07-28T04:13:00;6.35;;;3.92;;
20397;SDS011;10358;49.590;11.030;2023-07-28T04:15:26;6.43;;;4.32;;
20397;SDS011;10358;49.590;11.030;2023-07-28T04:17:51;6.82;;;5.03;;
20397;SDS011;10358;49.590;11.030;2023-07-28T04:20:17;7.43;;;4.47;;
20397;SDS011;10358;49.590;11.030;2023-07-28T04:22:42;6.30;;;4.80;;
20397;SDS011;10358;49.590;11.030;2023-07-28T04:25:08;6.38;;;4.30;;
20397;SDS011;10358;49.590;11.030;2023-07-28T04:27:33;7.18;;;4.30;;
20397;SDS011;10358;49.590;11.030;2023-07-28T04:29:59;6.95;;;4.10;;
20397;SDS011;10358;49.590;11.030;2023-07-28T04:32:25;7.30;;;4.30;;
20397;SDS011;10358;49.590;11.030;2023-07-28T04:34:51;7.38;;;4.60;;
20397;SDS011;10358;49.590;11.030;2023-07-28T04:37:16;6.75;;;4.75;;
20397;SDS011;10358;49.590;11.030;2023-07-28T04:39:42;6.30;;;4.57;;
20397;SDS011;10358;49.590;11.030;2023-07-28T04:42:08;6.55;;;5.05;;
20397;SDS011;10358;49.590;11.030;2023-07-28T04:44:34;9.38;;;4.97;;
20397;SDS011;10358;49.590;11.030;2023-07-28T04:46:59;8.35;;;5.53;;
20397;SDS011;10358;49.590;11.030;2023-07-28T04:49:25;9.38;;;5.10;;
20397;SDS011;10358;49.590;11.030;2023-07-28T04:51:50;8.13;;;5.55;;
20397;SDS011;10358;49.590;11.030;2023-07-28T04:54:16;9.48;;;6.25;;
20397;SDS011;10358;49.590;11.030;2023-07-28T04:56:42;8.25;;;5.57;;
20397;SDS011;10358;49.590;11.030;2023-07-28T04:59:07;9.48;;;5.65;;
20397;SDS011;10358;49.590;11.030;2023-07-28T05:01:33;7.38;;;6.00;;
20397;SDS011;10358;49.590;11.030;2023-07-28T05:03:58;7.22;;;5.38;;
20397;SDS011;10358;49.590;11.030;2023-07-28T05:06:24;8.95;;;6.15;;
20397;SDS011;10358;49.590;11.030;2023-07-28T05:08:49;7.60;;;5.50;;
20397;SDS011;10358;49.590;11.030;2023-07-28T05:11:15;11.25;;;5.90;;
20397;SDS011;10358;49.590;11.030;2023-07-28T05:13:41;7.32;;;5.85;;
20397;SDS011;10358;49.590;11.030;2023-07-28T05:16:06;8.50;;;6.68;;
20397;SDS011;10358;49.590;11.030;2023-07-28T05:18:32;7.72;;;5.57;;
20397;SDS011;10358;49.590;11.030;2023-07-28T05:20:57;9.77;;;5.72;;
20397;SDS011;10358;49.590;11.030;2023-07-28T05:23:23;10.27;;;5.38;;
20397;SDS011;10358;49.590;11.030;2023-07-28T05:25:48;8.68;;;5.57;;
20397;SDS011;10358;49.590;11.030;2023-07-28T05:28:14;6.55;;;5.50;;
20397;SDS011;10358;49.590;11.030;2023-07-28T05:30:39;9.65;;;6.10;;
20397;SDS011;10358;49.590;11.030;2023-07-28T05:33:05;10.23;;;5.85;;
20397;SDS011;10358;49.590;11.030;2023-07-28T05:35:30;13.15;;;6.32;;
20397;SDS011;10358;49.590;11.030;2023-07-28T05:37:56;9.27;;;6.45;;
20397;SDS011;10358;49.590;11.030;2023-07-28T05:40:21;11.27;;;7.57;;
20397;SDS011;10358;49.590;11.030;2023-07-28T05:42:47;12.35;;;6.57;;
20397;SDS011;10358;49.590;11.030;2023-07-28T05:45:12;10.20;;;6.15;;
20397;SDS011;10358;49.590;11.030;2023-07-28T05:47:38;10.15;;;6.03;;
20397;SDS011;10358;49.590;11.030;2023-07-28T05:50:04;9.05;;;6.45;;
20397;SDS011;10358;49.590;11.030;2023-07-28T05:52:30;11.30;;;6.13;;
20397;SDS011;10358;49.590;11.030;2023-07-28T05:54:56;9.15;;;5.90;;
20397;SDS011;10358;49.590;11.030;2023-07-28T05:57:21;9.23;;;6.45;;
20397;SDS011;10358;49.590;11.030;2023-07-28T05:59:47;10.95;;;6.72;;
20397;SDS011;10358;49.590;11.030;2023-07-28T06:02:12;11.07;;;6.03;;
20397;SDS011;10358;49.590;11.030;2023-07-28T06:04:38;8.80;;;6.50;;
20397;SDS011;10358;49.590;11.030;2023-07-28T06:07:04;10.27;;;6.75;;
20397;SDS011;10358;49.590;11.030;2023-07-28T06:09:30;9.73;;;6.72;;
20397;SDS011;10358;49.590;11.030;2023-07-28T06:11:56;9.65;;;6.20;;
20397;SDS011;10358;49.590;11.030;2023-07-28T06:14:24;10.15;;;6.25;;
20397;SDS011;10358;49.590;11.030;2023-07-28T06:16:52;11.52;;;6.00;;
20397;SDS011;10358;49.590;11.030;2023-07-28T06:19:19;9.57;;;6.40;;
20397;SDS011;10358;49.590;11.030;2023-07-28T06:21:49;8.88;;;6.28;;
20397;SDS011;10358;49.590;11.030;2023-07-28T06:24:15;10.45;;;6.05;;
20397;SDS011;10358;49.590;11.030;2023-07-28T06:26:41;7.70;;;5.13;;
20397;SDS011;10358;49.590;11.030;2023-07-28T06:29:07;10.07;;;6.47;;
20397;SDS011;10358;49.590;11.030;2023-07-28T06:31:32;9.50;;;5.85;;
20397;SDS011;10358;49.590;11.030;2023-07-28T06:33:58;8.25;;;5.30;;
20397;SDS011;10358;49.590;11.030;2023-07-28T06:36:24;8.27;;;5.78;;
20397;SDS011;10358;49.590;11.030;2023-07-28T06:38:49;15.23;;;6.05;;
20397;SDS011;10358;49.590;11.030;2023-07-28T06:41:17;8.68;;;5.70;;
20397;SDS011;10358;49.590;11.030;2023-07-28T06:43:42;11.75;;;6.00;;
20397;SDS011;10358;49.590;11.030;2023-07-28T06:46:08;12.02;;;5.78;;
20397;SDS011;10358;49.590;11.030;2023-07-28T06:48:34;10.57;;;6.57;;
20397;SDS011;10358;49.590;11.030;2023-07-28T06:50:59;8.20;;;5.93;;
20397;SDS011;10358;49.590;11.030;2023-07-28T06:53:25;8.63;;;5.60;;
20397;SDS011;10358;49.590;11.030;2023-07-28T06:55:50;10.25;;;5.57;;
20397;SDS011;10358;49.590;11.030;2023-07-28T06:58:16;9.55;;;6.20;;
20397;SDS011;10358;49.590;11.030;2023-07-28T07:00:42;8.15;;;5.97;;
20397;SDS011;10358;49.590;11.030;2023-07-28T07:03:07;8.70;;;5.28;;
20397;SDS011;10358;49.590;11.030;2023-07-28T07:05:34;9.73;;;6.25;;
20397;SDS011;10358;49.590;11.030;2023-07-28T07:07:59;10.32;;;5.65;;
20397;SDS011;10358;49.590;11.030;2023-07-28T07:10:28;8.45;;;5.50;;
20397;SDS011;10358;49.590;11.030;2023-07-28T07:12:55;9.10;;;6.15;;
20397;SDS011;10358;49.590;11.030;2023-07-28T07:15:21;9.35;;;6.03;;
20397;SDS011;10358;49.590;11.030;2023-07-28T07:17:47;7.78;;;5.70;;
20397;SDS011;10358;49.590;11.030;2023-07-28T07:20:12;7.85;;;6.05;;
20397;SDS011;10358;49.590;11.030;2023-07-28T07:22:38;8.00;;;5.88;;
20397;SDS011;10358;49.590;11.030;2023-07-28T07:25:04;9.80;;;6.10;;
20397;SDS011;10358;49.590;11.030;2023-07-28T07:27:30;9.32;;;5.95;;
20397;SDS011;10358;49.590;11.030;2023-07-28T07:29:55;8.93;;;5.22;;
20397;SDS011;10358;49.590;11.030;2023-07-28T07:32:21;6.60;;;4.82;;
20397;SDS011;10358;49.590;11.030;2023-07-28T07:34:47;7.68;;;5.22;;
20397;SDS011;10358;49.590;11.030;2023-07-28T07:37:12;6.85;;;5.50;;
20397;SDS011;10358;49.590;11.030;2023-07-28T07:39:38;6.53;;;4.70;;
20397;SDS011;10358;49.590;11.030;2023-07-28T07:42:06;6.35;;;4.30;;
20397;SDS011;10358;49.590;11.030;2023-07-28T07:44:31;5.30;;;3.80;;
20397;SDS011;10358;49.590;11.030;2023-07-28T07:47:00;7.43;;;3.90;;
20397;SDS011;10358;49.590;11.030;2023-07-28T07:49:26;5.97;;;3.70;;
20397;SDS011;10358;49.590;11.030;2023-07-28T07:51:52;6.50;;;3.58;;
20397;SDS011;10358;49.590;11.030;2023-07-28T07:54:17;8.20;;;3.67;;
20397;SDS011;10358;49.590;11.030;2023-07-28T07:56:43;6.88;;;3.00;;
20397;SDS011;10358;49.590;11.030;2023-07-28T07:59:09;4.50;;;3.05;;
20397;SDS011;10358;49.590;11.030;2023-07-28T08:01:37;6.88;;;3.03;;
20397;SDS011;10358;49.590;11.030;2023-07-28T08:04:03;5.35;;;3.00;;
20397;SDS011;10358;49.590;11.030;2023-07-28T08:06:28;7.82;;;2.80;;
20397;SDS011;10358;49.590;11.030;2023-07-28T08:08:54;4.00;;;2.65;;
20397;SDS011;10358;49.590;11.030;2023-07-28T08:11:21;5.60;;;2.90;;
20397;SDS011;10358;49.590;11.030;2023-07-28T08:13:47;4.15;;;2.92;;
20397;SDS011;10358;49.590;11.030;2023-07-28T08:16:13;3.83;;;2.38;;
20397;SDS011;10358;49.590;11.030;2023-07-28T08:18:39;3.78;;;2.40;;
20397;SDS011;10358;49.590;11.030;2023-07-28T08:21:04;3.22;;;2.30;;
20397;SDS011;10358;49.590;11.030;2023-07-28T08:23:30;3.33;;;2.35;;
20397;SDS011;10358;49.590;11.030;2023-07-28T08:25:55;3.78;;;2.30;;
20397;SDS011;10358;49.590;11.030;2023-07-28T08:28:21;4.05;;;2.42;;
20397;SDS011;10358;49.590;11.030;2023-07-28T08:30:56;3.40;;;2.22;;
20397;SDS011;10358;49.590;11.030;2023-07-28T08:33:22;3.10;;;2.50;;
20397;SDS011;10358;49.590;11.030;2023-07-28T08:35:48;2.80;;;2.13;;
20397;SDS011;10358;49.590;11.030;2023-07-28T08:38:14;2.25;;;1.85;;
20397;SDS011;10358;49.590;11.030;2023-07-28T08:40:39;4.20;;;2.20;;
20397;SDS011;10358;49.590;11.030;2023-07-28T08:43:05;2.38;;;1.90;;
20397;SDS011;10358;49.590;11.030;2023-07-28T08:45:31;4.05;;;2.08;;
20397;SDS011;10358;49.590;11.030;2023-07-28T08:47:57;2.15;;;1.95;;
20397;SDS011;10358;49.590;11.030;2023-07-28T08:50:22;4.45;;;2.05;;
20397;SDS011;10358;49.590;11.030;2023-07-28T08:52:48;3.33;;;2.00;;
20397;SDS011;10358;49.590;11.030;2023-07-28T08:55:15;2.60;;;2.10;;
20397;SDS011;10358;49.590;11.030;2023-07-28T08:57:42;3.15;;;2.05;;
20397;SDS011;10358;49.590;11.030;2023-07-28T09:00:11;4.22;;;2.00;;
20397;SDS011;10358;49.590;11.030;2023-07-28T09:02:42;4.25;;;2.03;;
20397;SDS011;10358;49.590;11.030;2023-07-28T09:05:16;3.80;;;1.80;;
20397;SDS011;10358;49.590;11.030;2023-07-28T09:07:44;2.45;;;1.88;;
20397;SDS011;10358;49.590;11.030;2023-07-28T09:10:10;2.20;;;1.70;;
20397;SDS011;10358;49.590;11.030;2023-07-28T09:12:43;2.35;;;1.40;;
20397;SDS011;10358;49.590;11.030;2023-07-28T09:15:10;2.47;;;1.58;;
20397;SDS011;10358;49.590;11.030;2023-07-28T09:17:40;2.10;;;1.63;;
20397;SDS011;10358;49.590;11.030;2023-07-28T09:20:07;3.92;;;1.40;;
20397;SDS011;10358;49.590;11.030;2023-07-28T09:22:38;2.13;;;1.60;;
20397;SDS011;10358;49.590;11.030;2023-07-28T09:25:11;2.88;;;1.52;;
20397;SDS011;10358;49.590;11.030;2023-07-28T09:27:38;4.38;;;1.52;;
20397;SDS011;10358;49.590;11.030;2023-07-28T09:30:04;1.40;;;1.20;;
20397;SDS011;10358;49.590;11.030;2023-07-28T09:32:31;2.78;;;1.48;;
20397;SDS011;10358;49.590;11.030;2023-07-28T09:35:05;2.35;;;1.45;;
20397;SDS011;10358;49.590;11.030;2023-07-28T09:37:34;2.63;;;1.35;;
20397;SDS011;10358;49.590;11.030;2023-07-28T09:40:02;5.32;;;1.50;;
20397;SDS011;10358;49.590;11.030;2023-07-28T09:42:29;6.07;;;1.63;;
20397;SDS011;10358;49.590;11.030;2023-07-28T09:44:56;2.85;;;1.42;;
20397;SDS011;10358;49.590;11.030;2023-07-28T09:47:21;2.38;;;1.50;;
20397;SDS011;10358;49.590;11.030;2023-07-28T09:49:48;4.15;;;1.45;;
20397;SDS011;10358;49.590;11.030;2023-07-28T09:52:15;3.58;;;1.33;;
20397;SDS011;10358;49.590;11.030;2023-07-28T09:54:43;3.50;;;1.50;;
20397;SDS011;10358;49.590;11.030;2023-07-28T09:57:14;1.95;;;1.15;;
20397;SDS011;10358;49.590;11.030;2023-07-28T09:59:45;1.30;;;1.20;;
20397;SDS011;10358;49.590;11.030;2023-07-28T10:02:12;1.52;;;1.27;;
20397;SDS011;10358;49.590;11.030;2023-07-28T10:04:38;2.75;;;1.25;;
20397;SDS011;10358;49.590;11.030;2023-07-28T10:07:04;1.40;;;1.00;;
20397;SDS011;10358;49.590;11.030;2023-07-28T10:09:32;2.63;;;1.17;;
20397;SDS011;10358;49.590;11.030;2023-07-28T10:11:59;2.03;;;1.10;;
20397;SDS011;10358;49.590;11.030;2023-07-28T10:14:26;2.30;;;1.10;;
20397;SDS011;10358;49.590;11.030;2023-07-28T10:16:57;2.40;;;1.10;;
20397;SDS011;10358;49.590;11.030;2023-07-28T10:19:26;3.25;;;0.90;;
20397;SDS011;10358;49.590;11.030;2023-07-28T10:22:10;1.90;;;1.10;;
20397;SDS011;10358;49.590;11.030;2023-07-28T10:25:00;3.13;;;1.13;;
20397;SDS011;10358;49.590;11.030;2023-07-28T10:27:43;1.73;;;1.00;;
20397;SDS011;10358;49.590;11.030;2023-07-28T10:30:11;1.42;;;1.13;;
20397;SDS011;10358;49.590;11.030;2023-07-28T10:32:39;2.05;;;1.20;;
20397;SDS011;10358;49.590;11.030;2023-07-28T10:37:38;1.20;;;1.00;;
20397;SDS011;10358;49.590;11.030;2023-07-28T10:42:48;2.35;;;1.10;;
20397;SDS011;10358;49.590;11.030;2023-07-28T10:45:15;1.50;;;1.00;;
20397;SDS011;10358;49.590;11.030;2023-07-28T10:47:40;1.77;;;1.20;;
20397;SDS011;10358;49.590;11.030;2023-07-28T10:50:09;2.28;;;1.02;;
20397;SDS011;10358;49.590;11.030;2023-07-28T10:52:39;1.63;;;0.95;;
20397;SDS011;10358;49.590;11.030;2023-07-28T10:55:11;2.17;;;1.20;;
20397;SDS011;10358;49.590;11.030;2023-07-28T10:57:38;2.75;;;1.23;;
20397;SDS011;10358;49.590;11.030;2023-07-28T11:00:04;2.95;;;1.25;;
20397;SDS011;10358;49.590;11.030;2023-07-28T11:02:30;2.28;;;1.38;;
20397;SDS011;10358;49.590;11.030;2023-07-28T11:04:56;1.98;;;1.27;;
20397;SDS011;10358;49.590;11.030;2023-07-28T11:07:21;1.40;;;1.20;;
20397;SDS011;10358;49.590;11.030;2023-07-28T11:09:47;2.13;;;1.20;;
20397;SDS011;10358;49.590;11.030;2023-07-28T11:12:13;2.58;;;1.27;;
20397;SDS011;10358;49.590;11.030;2023-07-28T11:14:39;2.63;;;1.20;;
20397;SDS011;10358;49.590;11.030;2023-07-28T11:17:05;1.73;;;1.42;;
20397;SDS011;10358;49.590;11.030;2023-07-28T11:19:31;2.08;;;1.30;;
20397;SDS011;10358;49.590;11.030;2023-07-28T11:21:58;1.70;;;1.20;;
20397;SDS011;10358;49.590;11.030;2023-07-28T11:24:24;1.55;;;1.30;;
20397;SDS011;10358;49.590;11.030;2023-07-28T11:26:51;3.10;;;1.33;;
20397;SDS011;10358;49.590;11.030;2023-07-28T11:29:17;1.40;;;1.20;;
20397;SDS011;10358;49.590;11.030;2023-07-28T11:31:43;2.90;;;1.30;;
20397;SDS011;10358;49.590;11.030;2023-07-28T11:34:15;1.88;;;1.23;;
20397;SDS011;10358;49.590;11.030;2023-07-28T11:36:42;3.83;;;1.30;;
20397;SDS011;10358;49.590;11.030;2023-07-28T11:39:07;1.67;;;1.25;;
20397;SDS011;10358;49.590;11.030;2023-07-28T11:41:35;2.00;;;1.48;;
20397;SDS011;10358;49.590;11.030;2023-07-28T11:44:01;2.20;;;1.23;;
20397;SDS011;10358;49.590;11.030;2023-07-28T11:46:37;2.47;;;1.40;;
20397;SDS011;10358;49.590;11.030;2023-07-28T11:49:10;1.60;;;1.20;;
20397;SDS011;10358;49.590;11.030;2023-07-28T11:51:44;1.77;;;1.30;;
20397;SDS011;10358;49.590;11.030;2023-07-28T11:54:13;3.40;;;1.13;;
20397;SDS011;10358;49.590;11.030;2023-07-28T11:56:41;1.52;;;1.20;;
20397;SDS011;10358;49.590;11.030;2023-07-28T11:59:08;1.30;;;1.02;;
20397;SDS011;10358;49.590;11.030;2023-07-28T12:01:34;1.80;;;1.20;;
20397;SDS011;10358;49.590;11.030;2023-07-28T12:04:18;2.28;;;1.20;;
20397;SDS011;10358;49.590;11.030;2023-07-28T12:07:04;1.13;;;1.00;;
20397;SDS011;10358;49.590;11.030;2023-07-28T12:12:10;2.30;;;1.10;;
20397;SDS011;10358;49.590;11.030;2023-07-28T12:14:36;1.50;;;1.17;;
20397;SDS011;10358;49.590;11.030;2023-07-28T12:17:03;3.08;;;1.20;;
20397;SDS011;10358;49.590;11.030;2023-07-28T12:19:40;1.27;;;1.02;;
20397;SDS011;10358;49.590;11.030;2023-07-28T12:22:06;1.75;;;1.25;;
20397;SDS011;10358;49.590;11.030;2023-07-28T12:24:33;2.45;;;1.30;;
20397;SDS011;10358;49.590;11.030;2023-07-28T12:26:58;2.25;;;1.20;;
20397;SDS011;10358;49.590;11.030;2023-07-28T12:29:24;2.47;;;1.10;;
20397;SDS011;10358;49.590;11.030;2023-07-28T12:31:49;1.58;;;1.00;;
20397;SDS011;10358;49.590;11.030;2023-07-28T12:34:15;1.17;;;1.00;;
20397;SDS011;10358;49.590;11.030;2023-07-28T12:36:40;1.90;;;1.13;;
20397;SDS011;10358;49.590;11.030;2023-07-28T12:39:06;1.85;;;1.05;;
20397;SDS011;10358;49.590;11.030;2023-07-28T12:41:32;1.85;;;1.20;;
20397;SDS011;10358;49.590;11.030;2023-07-28T12:43:58;3.13;;;0.90;;
20397;SDS011;10358;49.590;11.030;2023-07-28T12:46:23;3.15;;;1.00;;
20397;SDS011;10358;49.590;11.030;2023-07-28T12:48:49;2.75;;;1.25;;
20397;SDS011;10358;49.590;11.030;2023-07-28T12:51:14;2.30;;;1.00;;
20397;SDS011;10358;49.590;11.030;2023-07-28T12:53:40;2.08;;;1.25;;
20397;SDS011;10358;49.590;11.030;2023-07-28T12:56:05;1.00;;;0.90;;
20397;SDS011;10358;49.590;11.030;2023-07-28T12:58:31;1.10;;;0.90;;
20397;SDS011;10358;49.590;11.030;2023-07-28T13:00:58;3.33;;;1.05;;
20397;SDS011;10358;49.590;11.030;2023-07-28T13:03:26;1.20;;;1.00;;
20397;SDS011;10358;49.590;11.030;2023-07-28T13:05:52;1.83;;;1.00;;
20397;SDS011;10358;49.590;11.030;2023-07-28T13:08:17;1.67;;;1.02;;
20397;SDS011;10358;49.590;11.030;2023-07-28T13:10:43;1.13;;;0.95;;
20397;SDS011;10358;49.590;11.030;2023-07-28T13:13:08;1.67;;;0.80;;
20397;SDS011;10358;49.590;11.030;2023-07-28T13:15:34;1.52;;;0.90;;
20397;SDS011;10358;49.590;11.030;2023-07-28T13:18:00;1.58;;;0.80;;
20397;SDS011;10358;49.590;11.030;2023-07-28T13:20:25;1.90;;;0.90;;
20397;SDS011;10358;49.590;11.030;2023-07-28T13:22:51;0.85;;;0.85;;
20397;SDS011;10358;49.590;11.030;2023-07-28T13:25:17;1.48;;;0.90;;
20397;SDS011;10358;49.590;11.030;2023-07-28T13:27:42;1.65;;;1.05;;
20397;SDS011;10358;49.590;11.030;2023-07-28T13:30:08;2.80;;;0.90;;
20397;SDS011;10358;49.590;11.030;2023-07-28T13:32:34;2.17;;;1.08;;
20397;SDS011;10358;49.590;11.030;2023-07-28T13:34:59;3.53;;;1.00;;
20397;SDS011;10358;49.590;11.030;2023-07-28T13:37:25;2.42;;;1.15;;
20397;SDS011;10358;49.590;11.030;2023-07-28T13:39:50;2.10;;;1.00;;
20397;SDS011;10358;49.590;11.030;2023-07-28T13:42:17;6.40;;;0.90;;
20397;SDS011;10358;49.590;11.030;2023-07-28T13:44:43;2.67;;;1.10;;
20397;SDS011;10358;49.590;11.030;2023-07-28T13:47:08;1.40;;;1.00;;
20397;SDS011;10358;49.590;11.030;2023-07-28T13:49:34;1.42;;;1.10;;
20397;SDS011;10358;49.590;11.030;2023-07-28T13:52:01;1.70;;;1.13;;
20397;SDS011;10358;49.590;11.030;2023-07-28T13:54:28;2.83;;;1.20;;
20397;SDS011;10358;49.590;11.030;2023-07-28T13:56:53;1.67;;;1.23;;
20397;SDS011;10358;49.590;11.030;2023-07-28T13:59:19;9.30;;;1.30;;
20397;SDS011;10358;49.590;11.030;2023-07-28T14:01:45;3.03;;;1.33;;
20397;SDS011;10358;49.590;11.030;2023-07-28T14:04:10;1.23;;;1.00;;
20397;SDS011;10358;49.590;11.030;2023-07-28T14:06:36;2.03;;;1.20;;
20397;SDS011;10358;49.590;11.030;2023-07-28T14:09:04;3.08;;;1.30;;
20397;SDS011;10358;49.590;11.030;2023-07-28T14:11:31;3.78;;;1.33;;
20397;SDS011;10358;49.590;11.030;2023-07-28T14:13:57;2.03;;;1.30;;
20397;SDS011;10358;49.590;11.030;2023-07-28T14:16:23;2.55;;;0.95;;
20397;SDS011;10358;49.590;11.030;2023-07-28T14:18:48;1.98;;;1.48;;
20397;SDS011;10358;49.590;11.030;2023-07-28T14:21:15;4.35;;;1.30;;
20397;SDS011;10358;49.590;11.030;2023-07-28T14:23:41;1.55;;;1.25;;
20397;SDS011;10358;49.590;11.030;2023-07-28T14:26:06;1.73;;;1.30;;
20397;SDS011;10358;49.590;11.030;2023-07-28T14:28:32;4.05;;;1.50;;
20397;SDS011;10358;49.590;11.030;2023-07-28T14:30:57;2.20;;;1.40;;
20397;SDS011;10358;49.590;11.030;2023-07-28T14:33:23;3.05;;;1.10;;
20397;SDS011;10358;49.590;11.030;2023-07-28T14:35:49;1.40;;;1.23;;
20397;SDS011;10358;49.590;11.030;2023-07-28T14:38:15;1.70;;;1.23;;
20397;SDS011;10358;49.590;11.030;2023-07-28T14:40:41;1.30;;;1.08;;
20397;SDS011;10358;49.590;11.030;2023-07-28T14:43:09;3.08;;;1.10;;